createdAt,value
2018-01-23T00:01:17.043Z,72.99
2018-01-23T00:03:49.955Z,73.32
2018-01-23T00:06:21.796Z,73.20
2018-01-23T00:08:56.567Z,73.24
2018-01-23T00:11:34.177Z,73.09
2018-01-23T00:14:09.775Z,72.95
2018-01-23T00:16:47.139Z,72.64
2018-01-23T00:19:30.824Z,72.76
2018-01-23T00:22:13.689Z,72.63
2018-01-23T00:24:50.426Z,72.58
2018-01-23T00:27:22.753Z,72.54
2018-01-23T00:29:56.543Z,72.86
2018-01-23T00:32:36.664Z,72.72
2018-01-23T00:35:10.894Z,72.79
2018-01-23T00:37:46.009Z,72.72
2018-01-23T00:40:20.419Z,72.94
2018-01-23T00:42:52.996Z,72.62
2018-01-23T00:45:26.666Z,72.54
2018-01-23T00:48:08.813Z,72.61
2018-01-23T00:50:40.289Z,72.91
2018-01-23T00:55:52.762Z,72.59
2018-01-23T00:58:26.417Z,72.54
2018-01-23T01:00:57.487Z,72.49
2018-01-23T01:03:30.959Z,72.42
2018-01-23T01:06:08.331Z,72.55
2018-01-23T01:08:44.449Z,72.66
2018-01-23T01:11:19.078Z,72.72
2018-01-23T01:13:56.827Z,72.98
2018-01-23T01:16:30.178Z,72.82
2018-01-23T01:19:10.180Z,72.85
2018-01-23T01:21:44.930Z,72.57
2018-01-23T01:24:21.275Z,72.33
2018-01-23T01:26:56.239Z,72.54
2018-01-23T01:29:37.202Z,72.57
2018-01-23T01:32:15.390Z,72.41
2018-01-23T01:34:49.126Z,72.11
2018-01-23T01:37:30.029Z,71.93
2018-01-23T01:40:02.723Z,71.62
2018-01-23T01:42:42.407Z,71.86
2018-01-23T01:45:22.381Z,72.02
2018-01-23T01:48:03.551Z,71.67
2018-01-23T01:50:36.121Z,71.78
2018-01-23T01:53:06.479Z,71.68
2018-01-23T01:55:38.384Z,71.50
2018-01-23T01:58:09.243Z,71.52
2018-01-23T02:00:45.077Z,71.63
2018-01-23T02:03:15.852Z,71.32
2018-01-23T02:05:46.956Z,71.49
2018-01-23T02:08:24.116Z,71.57
2018-01-23T02:10:59.156Z,71.51
2018-01-23T02:13:33.710Z,71.46
2018-01-23T02:16:07.641Z,71.53
2018-01-23T02:18:41.104Z,71.54
2018-01-23T02:21:17.898Z,71.83
2018-01-23T02:23:55.178Z,72.09
2018-01-23T02:26:31.167Z,72.80
2018-01-23T02:29:11.091Z,72.62
2018-01-23T02:31:51.840Z,72.58
2018-01-23T02:34:24.440Z,72.26
2018-01-23T02:37:03.171Z,72.22
2018-01-23T02:39:38.107Z,71.86
2018-01-23T02:42:11.094Z,71.76
2018-01-23T02:44:46.656Z,71.92
2018-01-23T02:47:19.556Z,71.79
2018-01-23T02:49:54.496Z,71.42
2018-01-23T02:52:29.868Z,71.49
2018-01-23T02:55:01.034Z,71.96
2018-01-23T02:57:46.970Z,71.92
2018-01-23T03:00:23.104Z,72.09
2018-01-23T03:02:55.924Z,72.04
2018-01-23T03:05:37.157Z,71.83
2018-01-23T03:08:11.654Z,71.70
2018-01-23T03:10:47.629Z,71.52
2018-01-23T03:13:18.304Z,71.39
2018-01-23T03:15:49.317Z,71.56
2018-01-23T03:18:23.405Z,71.47
2018-01-23T03:20:57.191Z,71.40
2018-01-23T03:23:29.655Z,71.80
2018-01-23T03:26:08.816Z,71.25
2018-01-23T03:28:45.500Z,70.96
2018-01-23T03:31:21.298Z,70.54
2018-01-23T03:33:52.432Z,70.57
2018-01-23T03:36:22.676Z,70.33
2018-01-23T03:38:53.289Z,70.64
2018-01-23T03:41:24.992Z,70.87
2018-01-23T03:43:59.141Z,70.98
2018-01-23T03:46:32.401Z,70.72
2018-01-23T03:49:07.602Z,70.78
2018-01-23T03:51:41.085Z,71.21
2018-01-23T03:54:13.396Z,70.78
2018-01-23T03:57:10.025Z,70.60
2018-01-23T03:59:52.047Z,70.51
2018-01-23T04:02:26.981Z,70.41
2018-01-23T04:04:57.868Z,70.17
2018-01-23T04:07:31.768Z,70.25
2018-01-23T04:10:03.935Z,70.28
2018-01-23T04:12:35.453Z,70.05
2018-01-23T04:15:08.072Z,69.92
2018-01-23T04:17:46.446Z,69.96
2018-01-23T04:20:21.324Z,69.76
2018-01-23T04:23:17.985Z,69.43
2018-01-23T04:25:51.100Z,69.85
2018-01-23T04:28:22.979Z,69.56
2018-01-23T04:31:05.489Z,69.61
2018-01-23T04:36:24.323Z,69.41
2018-01-23T04:38:59.296Z,69.74
2018-01-23T04:41:34.787Z,69.39
2018-01-23T04:44:09.661Z,69.18
2018-01-23T04:46:40.299Z,69.41
2018-01-23T04:49:11.176Z,69.25
2018-01-23T04:51:45.494Z,69.05
2018-01-23T04:54:16.439Z,68.89
2018-01-23T04:56:48.804Z,68.90
2018-01-23T04:59:35.060Z,68.84
2018-01-23T05:02:06.986Z,68.63
2018-01-23T05:04:39.943Z,68.64
2018-01-23T05:07:13.923Z,68.75
2018-01-23T05:09:46.496Z,68.35
2018-01-23T05:12:17.706Z,68.01
2018-01-23T05:14:47.967Z,67.70
2018-01-23T05:17:20.798Z,67.64
2018-01-23T05:19:57.713Z,67.86
2018-01-23T05:22:30.325Z,67.80
2018-01-23T05:25:03.976Z,67.82
2018-01-23T05:27:36.215Z,67.93
2018-01-23T05:30:18.623Z,68.78
2018-01-23T05:32:53.770Z,68.38
2018-01-23T05:35:29.259Z,68.39
2018-01-23T05:38:05.050Z,68.24
2018-01-23T05:40:41.814Z,67.85
2018-01-23T05:43:13.452Z,67.70
2018-01-23T05:45:47.384Z,67.43
2018-01-23T05:48:20.210Z,67.48
2018-01-23T05:50:56.284Z,67.33
2018-01-23T05:53:34.639Z,67.38
2018-01-23T05:56:15.393Z,67.12
2018-01-23T06:01:41.306Z,66.95
2018-01-23T06:04:15.999Z,66.56
2018-01-23T06:06:48.459Z,66.80
2018-01-23T06:09:25.258Z,66.51
2018-01-23T06:11:57.181Z,66.78
2018-01-23T06:14:28.595Z,66.70
2018-01-23T06:17:04.793Z,66.46
2018-01-23T06:19:51.543Z,66.36
2018-01-23T06:22:25.916Z,66.49
2018-01-23T06:24:59.275Z,66.63
2018-01-23T06:27:33.038Z,66.52
2018-01-23T06:30:09.931Z,66.61
2018-01-23T06:32:54.102Z,66.48
2018-01-23T06:35:28.937Z,66.58
2018-01-23T06:38:03.370Z,66.36
2018-01-23T06:40:36.485Z,66.41
2018-01-23T06:43:08.767Z,66.26
2018-01-23T06:45:47.680Z,66.29
2018-01-23T06:48:21.478Z,67.12
2018-01-23T06:51:00.948Z,67.54
2018-01-23T06:53:40.174Z,67.52
2018-01-23T06:56:19.397Z,67.80
2018-01-23T06:58:52.553Z,67.09
2018-01-23T07:01:25.418Z,66.88
2018-01-23T07:04:04.990Z,66.68
2018-01-23T07:06:43.969Z,67.18
2018-01-23T07:09:27.292Z,68.02
2018-01-23T07:12:00.926Z,68.77
2018-01-23T07:17:26.093Z,69.86
2018-01-23T07:19:59.672Z,70.20
2018-01-23T07:22:36.370Z,68.95
2018-01-23T07:25:07.618Z,68.88
2018-01-23T07:28:04.354Z,69.31
2018-01-23T07:31:03.206Z,68.27
2018-01-23T07:33:43.644Z,69.23
2018-01-23T07:36:19.271Z,68.83
2018-01-23T07:38:53.475Z,68.00
2018-01-23T07:41:30.337Z,67.93
2018-01-23T07:44:04.643Z,67.58
2018-01-23T07:46:46.112Z,67.58
2018-01-23T07:49:18.063Z,67.35
2018-01-23T07:51:52.118Z,66.93
2018-01-23T07:54:26.541Z,66.86
2018-01-23T07:57:03.622Z,67.40
2018-01-23T07:59:42.247Z,67.21
2018-01-23T08:02:18.088Z,67.49
2018-01-23T08:04:57.447Z,68.32
2018-01-23T08:07:45.018Z,68.44
2018-01-23T08:10:27.318Z,67.23
2018-01-23T08:12:59.061Z,68.02
2018-01-23T08:15:31.116Z,67.25
2018-01-23T08:18:01.626Z,67.55
2018-01-23T08:20:33.503Z,67.57
2018-01-23T08:23:04.682Z,68.57
2018-01-23T08:25:35.569Z,67.96
2018-01-23T08:28:06.670Z,67.70
2018-01-23T08:30:38.301Z,67.82
2018-01-23T08:33:09.874Z,68.29
2018-01-23T08:38:19.806Z,67.54
2018-01-23T08:40:53.916Z,68.05
2018-01-23T08:43:25.737Z,66.98
2018-01-23T08:45:57.378Z,66.61
2018-01-23T08:48:28.948Z,66.30
2018-01-23T08:51:00.060Z,67.26
2018-01-23T08:53:33.141Z,66.94
2018-01-23T08:56:06.527Z,67.27
2018-01-23T08:58:39.142Z,66.66
2018-01-23T09:01:11.614Z,66.68
2018-01-23T09:03:46.394Z,66.55
2018-01-23T09:06:17.082Z,66.15
2018-01-23T09:08:49.578Z,66.88
2018-01-23T09:11:20.446Z,66.37
2018-01-23T09:13:52.456Z,66.30
2018-01-23T09:16:25.201Z,65.69
2018-01-23T09:18:58.728Z,65.64
2018-01-23T09:21:32.109Z,65.49
2018-01-23T09:24:09.132Z,65.56
2018-01-23T09:26:47.428Z,66.38
2018-01-23T09:29:27.479Z,66.84
2018-01-23T09:31:59.963Z,67.32
2018-01-23T09:34:38.446Z,67.15
2018-01-23T09:37:14.505Z,67.09
2018-01-23T09:39:47.326Z,67.17
2018-01-23T09:42:21.620Z,66.42
2018-01-23T09:45:08.785Z,66.42
2018-01-23T09:47:50.071Z,66.75
2018-01-23T09:50:23.027Z,66.61
2018-01-23T09:53:00.612Z,66.11
2018-01-23T09:55:33.354Z,65.51
2018-01-23T09:58:07.191Z,64.69
2018-01-23T10:00:43.396Z,64.79
2018-01-23T10:03:22.082Z,65.12
2018-01-23T10:05:56.142Z,64.41
2018-01-23T10:08:31.434Z,63.80
2018-01-23T10:11:08.920Z,63.65
2018-01-23T10:13:45.063Z,62.95
2018-01-23T10:16:19.497Z,63.07
2018-01-23T10:18:50.534Z,62.71
2018-01-23T10:21:27.137Z,62.50
2018-01-23T10:26:51.406Z,62.24
2018-01-23T10:29:27.536Z,62.16
2018-01-23T10:31:59.529Z,61.22
2018-01-23T10:34:34.066Z,61.66
2018-01-23T10:37:07.453Z,61.60
2018-01-23T10:39:39.991Z,60.44
2018-01-23T10:42:13.913Z,60.09
2018-01-23T10:44:46.930Z,60.31
2018-01-23T10:47:22.034Z,59.91
2018-01-23T10:49:58.536Z,61.77
2018-01-23T10:52:35.289Z,63.16
2018-01-23T10:55:16.552Z,61.86
2018-01-23T10:57:51.541Z,60.71
2018-01-23T11:00:28.394Z,60.85
2018-01-23T11:03:03.954Z,61.91
2018-01-23T11:05:40.332Z,62.15
2018-01-23T11:08:13.874Z,61.52
2018-01-23T11:10:53.467Z,61.86
2018-01-23T11:13:36.278Z,62.73
2018-01-23T11:16:14.803Z,62.33
2018-01-23T11:18:51.779Z,62.22
2018-01-23T11:21:26.904Z,61.87
2018-01-23T11:24:04.891Z,62.18
2018-01-23T11:26:38.492Z,63.84
2018-01-23T11:29:10.211Z,63.87
2018-01-23T11:31:49.939Z,63.82
2018-01-23T11:34:24.023Z,64.23
2018-01-23T11:37:00.615Z,64.16
2018-01-23T11:39:36.049Z,63.46
2018-01-23T11:42:12.418Z,62.81
2018-01-23T11:45:06.413Z,63.28
2018-01-23T11:47:40.481Z,64.20
2018-01-23T11:50:17.775Z,62.55
2018-01-23T11:52:54.871Z,62.04
2018-01-23T11:55:28.367Z,61.73
2018-01-23T11:58:11.888Z,63.31
2018-01-23T12:00:44.210Z,64.23
2018-01-23T12:03:23.748Z,62.60
2018-01-23T12:06:13.168Z,61.93
2018-01-23T12:09:05.474Z,62.22
2018-01-23T12:11:41.676Z,62.01
2018-01-23T12:14:18.449Z,62.56
2018-01-23T12:16:54.841Z,63.48
2018-01-23T12:19:43.579Z,63.06
2018-01-23T12:22:17.581Z,63.03
2018-01-23T12:24:51.293Z,61.93
2018-01-23T12:27:30.303Z,61.81
2018-01-23T12:30:05.732Z,61.84
2018-01-23T12:32:39.425Z,62.62
2018-01-23T12:35:12.116Z,62.66
2018-01-23T12:37:45.445Z,62.75
2018-01-23T12:40:19.748Z,62.99
2018-01-23T12:42:53.083Z,61.79
2018-01-23T12:45:27.282Z,62.37
2018-01-23T12:48:04.450Z,61.94
2018-01-23T12:50:38.367Z,61.36
2018-01-23T12:53:30.595Z,61.39
2018-01-23T12:56:05.457Z,61.73
2018-01-23T12:58:48.030Z,61.25
2018-01-23T13:01:29.598Z,59.76
2018-01-23T13:04:09.302Z,59.26
2018-01-23T13:06:50.939Z,61.10
2018-01-23T13:09:35.951Z,60.78
2018-01-23T13:12:08.601Z,60.29
2018-01-23T13:14:40.815Z,60.21
2018-01-23T13:17:14.005Z,60.01
2018-01-23T13:19:48.335Z,61.41
2018-01-23T13:22:24.158Z,61.96
2018-01-23T13:25:04.212Z,62.42
2018-01-23T13:27:41.098Z,63.19
2018-01-23T13:30:17.347Z,62.87
2018-01-23T13:32:56.278Z,63.20
2018-01-23T13:35:31.976Z,62.82
2018-01-23T13:38:12.979Z,61.14
2018-01-23T13:40:49.289Z,60.50
2018-01-23T13:43:26.988Z,61.80
2018-01-23T13:46:13.507Z,61.49
2018-01-23T13:48:55.905Z,60.36
2018-01-23T13:51:33.785Z,60.56
2018-01-23T13:54:06.768Z,60.24
2018-01-23T13:56:43.720Z,59.01
2018-01-23T13:59:24.974Z,59.50
2018-01-23T14:02:00.000Z,59.26
2018-01-23T14:04:36.561Z,59.14
2018-01-23T14:07:14.310Z,59.06
2018-01-23T14:09:50.307Z,59.06
2018-01-23T14:12:32.590Z,59.89
2018-01-23T14:15:26.045Z,59.78
2018-01-23T14:18:01.434Z,60.18
2018-01-23T14:20:37.359Z,60.08
2018-01-23T14:23:20.072Z,60.38
2018-01-23T14:26:05.428Z,60.12
2018-01-23T14:28:50.219Z,59.42
2018-01-23T14:31:30.631Z,60.00
2018-01-23T14:34:05.822Z,59.45
2018-01-23T14:36:44.056Z,58.93
2018-01-23T14:39:17.536Z,58.62
2018-01-23T14:41:58.313Z,58.79
2018-01-23T14:44:36.302Z,58.37
2018-01-23T14:50:13.921Z,58.44
2018-01-23T14:52:56.236Z,58.17
2018-01-23T14:55:44.980Z,58.56
2018-01-23T14:58:29.654Z,59.22
2018-01-23T15:01:14.473Z,58.48
2018-01-23T15:03:51.354Z,58.18
2018-01-23T15:06:30.229Z,59.27
2018-01-23T15:09:13.167Z,58.85
2018-01-23T15:11:49.950Z,58.52
2018-01-23T15:14:31.507Z,58.36
2018-01-23T15:17:18.518Z,58.87
2018-01-23T15:20:05.442Z,58.74
2018-01-23T15:22:49.973Z,58.35
2018-01-23T15:25:30.586Z,58.35
2018-01-23T15:31:12.176Z,59.50
2018-01-23T15:33:48.774Z,58.39
2018-01-23T15:36:23.328Z,59.34
2018-01-23T15:39:09.293Z,59.53
2018-01-23T15:41:50.285Z,59.43
2018-01-23T15:44:31.049Z,59.55
2018-01-23T15:47:13.862Z,58.52
2018-01-23T15:50:05.708Z,58.30
2018-01-23T15:53:01.509Z,58.34
2018-01-23T15:55:48.405Z,58.78
2018-01-23T15:58:21.702Z,59.07
2018-01-23T16:00:57.685Z,58.06
2018-01-23T16:03:43.581Z,58.16
2018-01-23T16:06:23.761Z,58.59
2018-01-23T16:09:29.762Z,59.52
2018-01-23T16:15:08.766Z,58.48
2018-01-23T16:20:51.236Z,59.74
2018-01-23T16:23:37.024Z,58.67
2018-01-23T16:26:11.766Z,59.24
2018-01-23T16:28:47.298Z,58.41
2018-01-23T16:31:22.761Z,59.27
2018-01-23T16:34:03.727Z,58.60
2018-01-23T16:36:39.094Z,58.76
2018-01-23T16:39:18.545Z,59.36
2018-01-23T16:42:06.289Z,59.70
2018-01-23T16:44:54.269Z,59.54
2018-01-23T16:47:36.525Z,58.96
2018-01-23T16:50:19.713Z,59.18
2018-01-23T16:56:45.655Z,59.75
2018-01-23T16:59:28.691Z,60.96
2018-01-23T17:02:06.551Z,61.03
2018-01-23T17:04:50.153Z,60.41
2018-01-23T17:07:34.090Z,61.11
2018-01-23T17:10:10.424Z,60.76
2018-01-23T17:12:45.809Z,61.19
2018-01-23T17:15:33.221Z,61.01
2018-01-23T17:18:14.247Z,60.36
2018-01-23T17:20:53.492Z,60.84
2018-01-23T17:23:31.725Z,60.37
2018-01-23T17:26:19.162Z,60.25
2018-01-23T17:29:13.861Z,60.37
2018-01-23T17:31:59.664Z,60.58
2018-01-23T17:34:35.379Z,60.89
2018-01-23T17:37:14.802Z,60.65
2018-01-23T17:40:04.826Z,60.44
2018-01-23T17:45:37.599Z,60.71
2018-01-23T17:48:15.028Z,60.15
2018-01-23T17:51:12.290Z,59.78
2018-01-23T17:53:47.707Z,61.18
2018-01-23T17:56:32.145Z,62.60
2018-01-23T17:59:26.251Z,63.27
2018-01-23T18:02:02.722Z,65.00
2018-01-23T18:04:39.748Z,63.47
2018-01-23T18:07:22.434Z,63.72
2018-01-23T18:10:10.566Z,63.82
2018-01-23T18:13:16.963Z,64.97
2018-01-23T18:16:26.626Z,64.89
2018-01-23T18:19:06.788Z,63.99
2018-01-23T18:24:12.900Z,64.29
2018-01-23T18:26:52.703Z,65.50
2018-01-23T18:29:32.483Z,65.32
2018-01-23T18:32:34.519Z,64.94
2018-01-23T18:38:18.481Z,63.82
2018-01-23T18:41:13.875Z,64.07
2018-01-23T18:43:50.885Z,63.71
2018-01-23T18:46:23.893Z,63.68
2018-01-23T18:48:58.457Z,62.91
2018-01-23T18:51:30.999Z,63.75
2018-01-23T18:54:08.294Z,63.37
2018-01-23T18:56:40.088Z,63.07
2018-01-23T18:59:12.476Z,62.52
2018-01-23T19:01:43.870Z,63.80
2018-01-23T19:04:16.544Z,64.47
2018-01-23T19:09:30.790Z,66.35
2018-01-23T19:12:04.101Z,67.44
2018-01-23T19:14:36.208Z,68.34
2018-01-23T19:17:07.288Z,69.03
2018-01-23T19:19:42.842Z,69.80
2018-01-23T19:22:14.158Z,69.93
2018-01-23T19:24:45.662Z,69.52
2018-01-23T19:27:17.329Z,70.34
2018-01-23T19:29:48.211Z,69.90
2018-01-23T19:32:20.224Z,70.01
2018-01-23T19:34:52.277Z,70.53
2018-01-23T19:37:25.656Z,69.43
2018-01-23T19:39:57.431Z,69.17
2018-01-23T19:42:29.716Z,67.81
2018-01-23T19:45:00.724Z,68.79
2018-01-23T19:47:35.640Z,68.62
2018-01-23T19:50:08.363Z,68.59
2018-01-23T19:52:40.764Z,67.78
2018-01-23T19:55:13.616Z,67.46
2018-01-23T19:57:47.520Z,68.07
2018-01-23T20:00:20.649Z,68.20
2018-01-23T20:02:55.134Z,68.71
2018-01-23T20:05:27.163Z,69.09
2018-01-23T20:08:03.753Z,69.66
2018-01-23T20:13:51.388Z,68.09
2018-01-23T20:18:57.115Z,68.48
2018-01-23T20:21:31.309Z,66.97
2018-01-23T20:24:05.005Z,68.50
2018-01-23T20:26:35.938Z,68.51
2018-01-23T20:29:08.214Z,68.12
2018-01-23T20:31:40.059Z,68.22
2018-01-23T20:34:10.823Z,68.59
2018-01-23T20:36:43.638Z,68.64
2018-01-23T20:39:15.192Z,68.48
2018-01-23T20:41:46.075Z,68.79
2018-01-23T20:44:17.845Z,69.54
2018-01-23T20:46:49.715Z,69.23
2018-01-23T20:49:20.811Z,68.58
2018-01-23T20:51:52.298Z,68.57
2018-01-23T20:54:23.257Z,68.28
2018-01-23T20:56:55.200Z,67.81
2018-01-23T20:59:28.056Z,68.67
2018-01-23T21:01:59.846Z,68.10
2018-01-23T21:04:30.845Z,68.96
2018-01-23T21:07:03.389Z,68.96
2018-01-23T21:09:34.477Z,68.65
2018-01-23T21:12:05.461Z,68.43
2018-01-23T21:14:38.688Z,68.95
2018-01-23T21:17:10.274Z,69.23
2018-01-23T21:19:41.521Z,68.43
2018-01-23T21:22:12.999Z,68.48
2018-01-23T21:24:44.513Z,68.92
2018-01-23T21:27:17.096Z,69.00
2018-01-23T21:29:49.097Z,69.21
2018-01-23T21:32:20.192Z,68.52
2018-01-23T21:34:51.639Z,68.69
2018-01-23T21:37:23.627Z,69.18
2018-01-23T21:39:54.759Z,69.24
2018-01-23T21:42:25.636Z,69.82
2018-01-23T21:44:56.742Z,69.62
2018-01-23T21:47:27.800Z,69.39
2018-01-23T21:49:59.224Z,69.91
2018-01-23T21:52:31.336Z,69.58
2018-01-23T21:55:03.606Z,69.42
2018-01-23T21:57:34.383Z,69.77
2018-01-23T22:00:07.311Z,69.76
2018-01-23T22:02:38.473Z,69.54
2018-01-23T22:05:09.755Z,69.29
2018-01-23T22:07:40.658Z,69.51
2018-01-23T22:10:12.088Z,69.33
2018-01-23T22:12:44.758Z,69.15
2018-01-23T22:15:17.204Z,69.16
2018-01-23T22:17:50.031Z,69.87
2018-01-23T22:20:23.701Z,69.45
2018-01-23T22:22:54.962Z,69.88
2018-01-23T22:25:26.552Z,69.54
2018-01-23T22:27:58.685Z,69.15
2018-01-23T22:30:30.834Z,68.73
2018-01-23T22:33:01.816Z,68.45
2018-01-23T22:35:32.554Z,68.75
2018-01-23T22:38:10.246Z,68.42
2018-01-23T22:40:41.402Z,69.12
2018-01-23T22:43:12.287Z,68.91
2018-01-23T22:45:43.246Z,68.14
2018-01-23T22:48:14.981Z,68.33
2018-01-23T22:50:46.210Z,68.79
2018-01-23T22:53:17.342Z,68.29
2018-01-23T22:55:47.993Z,68.60
2018-01-23T22:58:18.814Z,68.12
2018-01-23T23:00:56.528Z,68.13
2018-01-23T23:03:27.577Z,68.23
2018-01-23T23:05:58.592Z,69.27
2018-01-23T23:08:29.242Z,69.51
2018-01-23T23:11:00.406Z,69.54
2018-01-23T23:13:31.031Z,70.24
2018-01-23T23:16:01.912Z,69.66
2018-01-23T23:18:33.389Z,69.67
2018-01-23T23:21:04.929Z,69.60
2018-01-23T23:23:35.520Z,69.98
2018-01-23T23:26:06.441Z,70.15
2018-01-23T23:28:37.088Z,70.45
2018-01-23T23:31:09.973Z,69.89
2018-01-23T23:33:41.974Z,70.25
2018-01-23T23:36:14.622Z,70.27
2018-01-23T23:38:45.341Z,71.13
2018-01-23T23:41:17.257Z,70.89
2018-01-23T23:43:48.426Z,70.44
2018-01-23T23:46:21.013Z,70.67
2018-01-23T23:48:53.923Z,70.29
2018-01-23T23:51:25.990Z,70.23
2018-01-23T23:53:56.660Z,70.24
2018-01-23T23:56:28.082Z,70.72
2018-01-23T23:58:59.995Z,70.13
